Missouri River (Missouri), Glasgow (06906500)

StateMissouriLatestUnknown (80800 cfs)
RiverMissouri RiverRatingObservedEstimated
Updated2020-08-06 10:30 (53 minutes ago)Flood - The river is flooding. Obstacles can be treacherous or deadly. The river should be avoided at this stage for casual trips and definitely for the inexperienced. Trips should be attempted only with protective gear and equipment.Flood(none)(none)
Discharge80800 cfs (median: 54600 cfs)High - The river is high and potentially dangerous, especially for the young and / or inexperienced. Normal stream obstacles are sometimes difficult to navigate. Extended distances can be attempted, but canoe travel may not be advisable.High(none)(none)
Height16.73 feetGood - Conditions are ideal for a canoe or kayak. Boats typically will drag on fewer than one-quarter of riffles, if at all, and portages are unnecessary or rare. Normal float lengths can be attempted without a problem.Good(none)(none)
TrendFalling (falling over 24 hours)Low - River is low but can still be floated. Some riffles are okay but most come with significant dragging and might need a portage. Float lengths should be reduced to accommodate low flow, dragging, and portages.Low(none)(none)
USGSExternal icon USGS Site (External icon Google Maps)Poor - River is too low to float comfortably. Most or all riffles will drag or must be portaged and some obstacles (such as slick shelf rock) cause undue problems. Avoid the river at this stage for casual paddling trips.Poor(none)(none)

Trending Data

Plot Image

Trips for Missouri River (Missouri), Glasgow (06906500)

DateStartEndDistanceConditionDischargeHeightFishingDetails

A total of 0 rows are displayed.

Condition Descriptions

Fishing Conditions

Fish Species

Notes

Classic Trip List

The classic River Trips application is still available for use. It is updated with the new system using a data retrofit. It is no longer maintained. The original River Trips application is no longer updated (as of 1 Dec 2016) but can be checked for errors or for the condition of the data before it was converted to the new system.

Gauge Data Table

ObservationHeightDischargeMaximum
Discharge
Minimum
Discharge
Mean
Discharge
P05P10P20P25P50
(Median)
P75P80P90P95
2020-08-06 10:30 16.73 80800 212000 (2011) 31000 (2002) 71300 31000 34500 35700 40700 54600 83700 105000 134000 212000
2020-08-06 09:30 16.75 81000 212000 (2011) 31000 (2002) 71300 31000 34500 35700 40700 54600 83700 105000 134000 212000
2020-08-06 08:30 16.75 81000 212000 (2011) 31000 (2002) 71300 31000 34500 35700 40700 54600 83700 105000 134000 212000
2020-08-06 07:30 16.74 80900 212000 (2011) 31000 (2002) 71300 31000 34500 35700 40700 54600 83700 105000 134000 212000
2020-08-06 06:30 16.77 81100 212000 (2011) 31000 (2002) 71300 31000 34500 35700 40700 54600 83700 105000 134000 212000
2020-08-06 05:30 16.80 81400 212000 (2011) 31000 (2002) 71300 31000 34500 35700 40700 54600 83700 105000 134000 212000
2020-08-06 04:30 16.80 81400 212000 (2011) 31000 (2002) 71300 31000 34500 35700 40700 54600 83700 105000 134000 212000
2020-08-06 03:30 16.77 81100 212000 (2011) 31000 (2002) 71300 31000 34500 35700 40700 54600 83700 105000 134000 212000
2020-08-06 02:30 16.84 81700 212000 (2011) 31000 (2002) 71300 31000 34500 35700 40700 54600 83700 105000 134000 212000
2020-08-06 01:30 16.86 81900 212000 (2011) 31000 (2002) 71300 31000 34500 35700 40700 54600 83700 105000 134000 212000
2020-08-06 00:30 16.90 82200 212000 (2011) 31000 (2002) 71300 31000 34500 35700 40700 54600 83700 105000 134000 212000
2020-08-05 23:30 16.91 82300 213000 (2011) 31100 (2002) 71100 31100 34100 35600 40900 52200 84300 106000 136000 213000
2020-08-05 22:30 16.91 82300 213000 (2011) 31100 (2002) 71100 31100 34100 35600 40900 52200 84300 106000 136000 213000
2020-08-05 21:30 16.96 82700 213000 (2011) 31100 (2002) 71100 31100 34100 35600 40900 52200 84300 106000 136000 213000
2020-08-05 20:30 16.98 82900 213000 (2011) 31100 (2002) 71100 31100 34100 35600 40900 52200 84300 106000 136000 213000
2020-08-05 19:30 17.00 83000 213000 (2011) 31100 (2002) 71100 31100 34100 35600 40900 52200 84300 106000 136000 213000
2020-08-05 18:30 16.99 83000 213000 (2011) 31100 (2002) 71100 31100 34100 35600 40900 52200 84300 106000 136000 213000
2020-08-05 17:30 17.01 83100 213000 (2011) 31100 (2002) 71100 31100 34100 35600 40900 52200 84300 106000 136000 213000
2020-08-05 16:30 17.05 83500 213000 (2011) 31100 (2002) 71100 31100 34100 35600 40900 52200 84300 106000 136000 213000
2020-08-05 15:30 17.11 84000 213000 (2011) 31100 (2002) 71100 31100 34100 35600 40900 52200 84300 106000 136000 213000
2020-08-05 14:30 17.14 84200 213000 (2011) 31100 (2002) 71100 31100 34100 35600 40900 52200 84300 106000 136000 213000
2020-08-05 13:30 17.21 84800 213000 (2011) 31100 (2002) 71100 31100 34100 35600 40900 52200 84300 106000 136000 213000
2020-08-05 12:30 17.23 85000 213000 (2011) 31100 (2002) 71100 31100 34100 35600 40900 52200 84300 106000 136000 213000
2020-08-05 11:30 17.24 85100 213000 (2011) 31100 (2002) 71100 31100 34100 35600 40900 52200 84300 106000 136000 213000
2020-08-05 10:30 17.29 85500 213000 (2011) 31100 (2002) 71100 31100 34100 35600 40900 52200 84300 106000 136000 213000
2020-08-05 09:30 17.34 85900 213000 (2011) 31100 (2002) 71100 31100 34100 35600 40900 52200 84300 106000 136000 213000
2020-08-05 08:30 17.37 86200 213000 (2011) 31100 (2002) 71100 31100 34100 35600 40900 52200 84300 106000 136000 213000
2020-08-05 07:30 17.46 87000 213000 (2011) 31100 (2002) 71100 31100 34100 35600 40900 52200 84300 106000 136000 213000
2020-08-05 06:30 17.51 87400 213000 (2011) 31100 (2002) 71100 31100 34100 35600 40900 52200 84300 106000 136000 213000
2020-08-05 05:30 17.57 87900 213000 (2011) 31100 (2002) 71100 31100 34100 35600 40900 52200 84300 106000 136000 213000
2020-08-05 04:30 17.58 88000 213000 (2011) 31100 (2002) 71100 31100 34100 35600 40900 52200 84300 106000 136000 213000
2020-08-05 03:30 17.62 88400 213000 (2011) 31100 (2002) 71100 31100 34100 35600 40900 52200 84300 106000 136000 213000
2020-08-05 02:30 17.67 88800 213000 (2011) 31100 (2002) 71100 31100 34100 35600 40900 52200 84300 106000 136000 213000
2020-08-05 01:30 17.72 89300 213000 (2011) 31100 (2002) 71100 31100 34100 35600 40900 52200 84300 106000 136000 213000
2020-08-05 00:30 17.78 89800 213000 (2011) 31100 (2002) 71100 31100 34100 35600 40900 52200 84300 106000 136000 213000
2020-08-04 23:30 17.83 90200 215000 (2011) 31700 (2002) 72900 31700 33400 35700 39600 52900 91400 112000 144000 215000
2020-08-04 22:30 17.85 90400 215000 (2011) 31700 (2002) 72900 31700 33400 35700 39600 52900 91400 112000 144000 215000
2020-08-04 21:30 17.92 91000 215000 (2011) 31700 (2002) 72900 31700 33400 35700 39600 52900 91400 112000 144000 215000
2020-08-04 20:30 17.93 91100 215000 (2011) 31700 (2002) 72900 31700 33400 35700 39600 52900 91400 112000 144000 215000
2020-08-04 19:30 17.98 91500 215000 (2011) 31700 (2002) 72900 31700 33400 35700 39600 52900 91400 112000 144000 215000
2020-08-04 18:30 18.06 92200 215000 (2011) 31700 (2002) 72900 31700 33400 35700 39600 52900 91400 112000 144000 215000
2020-08-04 17:30 18.11 92600 215000 (2011) 31700 (2002) 72900 31700 33400 35700 39600 52900 91400 112000 144000 215000
2020-08-04 16:30 18.12 92700 215000 (2011) 31700 (2002) 72900 31700 33400 35700 39600 52900 91400 112000 144000 215000
2020-08-04 15:30 18.20 93300 215000 (2011) 31700 (2002) 72900 31700 33400 35700 39600 52900 91400 112000 144000 215000
2020-08-04 14:30 18.27 93900 215000 (2011) 31700 (2002) 72900 31700 33400 35700 39600 52900 91400 112000 144000 215000
2020-08-04 13:30 18.31 94300 215000 (2011) 31700 (2002) 72900 31700 33400 35700 39600 52900 91400 112000 144000 215000
2020-08-04 12:30 18.37 94800 215000 (2011) 31700 (2002) 72900 31700 33400 35700 39600 52900 91400 112000 144000 215000
2020-08-04 11:30 18.44 95400 215000 (2011) 31700 (2002) 72900 31700 33400 35700 39600 52900 91400 112000 144000 215000
2020-08-04 10:30 18.53 96200 215000 (2011) 31700 (2002) 72900 31700 33400 35700 39600 52900 91400 112000 144000 215000
2020-08-04 09:30 18.57 96500 215000 (2011) 31700 (2002) 72900 31700 33400 35700 39600 52900 91400 112000 144000 215000
2020-08-04 08:30 18.64 97100 215000 (2011) 31700 (2002) 72900 31700 33400 35700 39600 52900 91400 112000 144000 215000
2020-08-04 07:30 18.70 97700 215000 (2011) 31700 (2002) 72900 31700 33400 35700 39600 52900 91400 112000 144000 215000
2020-08-04 06:30 18.75 98100 215000 (2011) 31700 (2002) 72900 31700 33400 35700 39600 52900 91400 112000 144000 215000
2020-08-04 05:30 18.81 98600 215000 (2011) 31700 (2002) 72900 31700 33400 35700 39600 52900 91400 112000 144000 215000
2020-08-04 04:30 18.88 99200 215000 (2011) 31700 (2002) 72900 31700 33400 35700 39600 52900 91400 112000 144000 215000
2020-08-04 03:30 18.97 100000 215000 (2011) 31700 (2002) 72900 31700 33400 35700 39600 52900 91400 112000 144000 215000
2020-08-04 02:30 19.03 101000 215000 (2011) 31700 (2002) 72900 31700 33400 35700 39600 52900 91400 112000 144000 215000
2020-08-04 01:30 19.08 101000 215000 (2011) 31700 (2002) 72900 31700 33400 35700 39600 52900 91400 112000 144000 215000
2020-08-04 00:30 19.15 102000 215000 (2011) 31700 (2002) 72900 31700 33400 35700 39600 52900 91400 112000 144000 215000
2020-08-03 23:30 19.21 102000 218000 (2011) 32400 (2002) 76800 32400 33300 36600 39400 52200 121000 132000 152000 218000
2020-08-03 22:30 19.28 103000 218000 (2011) 32400 (2002) 76800 32400 33300 36600 39400 52200 121000 132000 152000 218000
2020-08-03 21:30 19.37 104000 218000 (2011) 32400 (2002) 76800 32400 33300 36600 39400 52200 121000 132000 152000 218000
2020-08-03 20:30 19.44 104000 218000 (2011) 32400 (2002) 76800 32400 33300 36600 39400 52200 121000 132000 152000 218000
2020-08-03 19:30 19.52 105000 218000 (2011) 32400 (2002) 76800 32400 33300 36600 39400 52200 121000 132000 152000 218000
2020-08-03 18:30 19.54 105000 218000 (2011) 32400 (2002) 76800 32400 33300 36600 39400 52200 121000 132000 152000 218000
2020-08-03 17:30 19.63 106000 218000 (2011) 32400 (2002) 76800 32400 33300 36600 39400 52200 121000 132000 152000 218000
2020-08-03 16:30 19.72 107000 218000 (2011) 32400 (2002) 76800 32400 33300 36600 39400 52200 121000 132000 152000 218000
2020-08-03 15:30 19.81 108000 218000 (2011) 32400 (2002) 76800 32400 33300 36600 39400 52200 121000 132000 152000 218000
2020-08-03 14:30 19.86 108000 218000 (2011) 32400 (2002) 76800 32400 33300 36600 39400 52200 121000 132000 152000 218000
2020-08-03 13:30 19.93 109000 218000 (2011) 32400 (2002) 76800 32400 33300 36600 39400 52200 121000 132000 152000 218000
2020-08-03 12:30 20.02 110000 218000 (2011) 32400 (2002) 76800 32400 33300 36600 39400 52200 121000 132000 152000 218000
2020-08-03 11:30 20.12 111000 218000 (2011) 32400 (2002) 76800 32400 33300 36600 39400 52200 121000 132000 152000 218000
2020-08-03 10:30 20.21 112000 218000 (2011) 32400 (2002) 76800 32400 33300 36600 39400 52200 121000 132000 152000 218000
2020-08-03 09:30 20.28 112000 218000 (2011) 32400 (2002) 76800 32400 33300 36600 39400 52200 121000 132000 152000 218000
2020-08-03 08:30 20.33 113000 218000 (2011) 32400 (2002) 76800 32400 33300 36600 39400 52200 121000 132000 152000 218000
2020-08-03 07:30 20.44 114000 218000 (2011) 32400 (2002) 76800 32400 33300 36600 39400 52200 121000 132000 152000 218000
2020-08-03 06:30 20.56 115000 218000 (2011) 32400 (2002) 76800 32400 33300 36600 39400 52200 121000 132000 152000 218000
2020-08-03 05:30 20.67 116000 218000 (2011) 32400 (2002) 76800 32400 33300 36600 39400 52200 121000 132000 152000 218000
2020-08-03 04:30 20.80 117000 218000 (2011) 32400 (2002) 76800 32400 33300 36600 39400 52200 121000 132000 152000 218000
2020-08-03 03:30 20.90 118000 218000 (2011) 32400 (2002) 76800 32400 33300 36600 39400 52200 121000 132000 152000 218000
2020-08-03 02:30 21.02 120000 218000 (2011) 32400 (2002) 76800 32400 33300 36600 39400 52200 121000 132000 152000 218000
2020-08-03 01:30 21.19 121000 218000 (2011) 32400 (2002) 76800 32400 33300 36600 39400 52200 121000 132000 152000 218000
2020-08-03 00:30 21.32 123000 218000 (2011) 32400 (2002) 76800 32400 33300 36600 39400 52200 121000 132000 152000 218000

A total of 83 rows are displayed for years 2001 through 2019.